sensor_id;sensor_type;location;lat;lon;timestamp;pressure;altitude;pressure_sealevel;temperature;humidity
65756;BME280;52489;47.502;18.940;2023-03-21T00:00:40;98129.62;;;10.34;73.44
65756;BME280;52489;47.502;18.940;2023-03-21T00:01:43;98134.84;;;10.34;73.48
65756;BME280;52489;47.502;18.940;2023-03-21T00:02:46;98130.22;;;10.31;73.45
65756;BME280;52489;47.502;18.940;2023-03-21T00:03:49;98127.00;;;10.34;73.42
65756;BME280;52489;47.502;18.940;2023-03-21T00:04:53;98130.12;;;10.36;73.25
65756;BME280;52489;47.502;18.940;2023-03-21T00:06:07;98124.97;;;10.31;73.35
65756;BME280;52489;47.502;18.940;2023-03-21T00:07:10;98128.16;;;10.28;73.52
65756;BME280;52489;47.502;18.940;2023-03-21T00:08:14;98125.75;;;10.31;73.49
65756;BME280;52489;47.502;18.940;2023-03-21T00:09:17;98130.47;;;10.29;73.57
65756;BME280;52489;47.502;18.940;2023-03-21T00:10:20;98125.78;;;10.26;73.67
65756;BME280;52489;47.502;18.940;2023-03-21T00:11:41;98127.44;;;10.22;73.71
65756;BME280;52489;47.502;18.940;2023-03-21T00:12:44;98125.25;;;10.29;73.57
65756;BME280;52489;47.502;18.940;2023-03-21T00:13:47;98130.56;;;10.24;73.60
65756;BME280;52489;47.502;18.940;2023-03-21T00:14:50;98126.97;;;10.20;73.50
65756;BME280;52489;47.502;18.940;2023-03-21T00:15:55;98125.69;;;10.17;73.53
65756;BME280;52489;47.502;18.940;2023-03-21T00:17:17;98129.69;;;10.15;73.66
65756;BME280;52489;47.502;18.940;2023-03-21T00:18:23;98123.47;;;10.11;73.63
65756;BME280;52489;47.502;18.940;2023-03-21T00:19:27;98131.31;;;10.11;73.69
65756;BME280;52489;47.502;18.940;2023-03-21T00:20:31;98127.44;;;10.08;73.74
65756;BME280;52489;47.502;18.940;2023-03-21T00:21:36;98126.66;;;10.08;73.21
65756;BME280;52489;47.502;18.940;2023-03-21T00:22:53;98126.28;;;10.00;73.32
65756;BME280;52489;47.502;18.940;2023-03-21T00:23:57;98123.69;;;9.82;74.19
65756;BME280;52489;47.502;18.940;2023-03-21T00:25:00;98113.44;;;9.85;74.77
65756;BME280;52489;47.502;18.940;2023-03-21T00:26:03;98118.69;;;9.85;74.22
65756;BME280;52489;47.502;18.940;2023-03-21T00:27:06;98118.75;;;9.80;74.44
65756;BME280;52489;47.502;18.940;2023-03-21T00:28:29;98122.16;;;9.80;74.32
65756;BME280;52489;47.502;18.940;2023-03-21T00:29:32;98118.06;;;9.74;74.62
65756;BME280;52489;47.502;18.940;2023-03-21T00:30:35;98118.06;;;9.74;74.33
65756;BME280;52489;47.502;18.940;2023-03-21T00:31:38;98111.88;;;9.70;73.78
65756;BME280;52489;47.502;18.940;2023-03-21T00:32:40;98115.06;;;9.67;74.49
65756;BME280;52489;47.502;18.940;2023-03-21T00:33:57;98122.69;;;9.64;75.11
65756;BME280;52489;47.502;18.940;2023-03-21T00:35:00;98124.03;;;9.61;74.85
65756;BME280;52489;47.502;18.940;2023-03-21T00:36:23;98113.47;;;9.52;74.87
65756;BME280;52489;47.502;18.940;2023-03-21T00:37:27;98111.19;;;9.46;75.08
65756;BME280;52489;47.502;18.940;2023-03-21T00:38:31;98105.25;;;9.40;75.51
65756;BME280;52489;47.502;18.940;2023-03-21T00:39:34;98107.53;;;9.47;75.18
65756;BME280;52489;47.502;18.940;2023-03-21T00:40:38;98105.50;;;9.44;74.97
65756;BME280;52489;47.502;18.940;2023-03-21T00:41:50;98108.44;;;9.37;74.87
65756;BME280;52489;47.502;18.940;2023-03-21T00:42:52;98112.69;;;9.33;75.15
65756;BME280;52489;47.502;18.940;2023-03-21T00:43:55;98098.91;;;9.27;75.65
65756;BME280;52489;47.502;18.940;2023-03-21T00:44:59;98101.84;;;9.26;75.94
65756;BME280;52489;47.502;18.940;2023-03-21T00:46:05;98103.75;;;9.20;75.76
65756;BME280;52489;47.502;18.940;2023-03-21T00:47:10;98108.53;;;9.13;76.69
65756;BME280;52489;47.502;18.940;2023-03-21T00:48:13;98104.22;;;9.03;76.07
65756;BME280;52489;47.502;18.940;2023-03-21T00:49:16;98107.06;;;9.07;76.52
65756;BME280;52489;47.502;18.940;2023-03-21T00:50:19;98108.97;;;9.01;77.43
65756;BME280;52489;47.502;18.940;2023-03-21T00:51:23;98105.06;;;8.99;76.91
65756;BME280;52489;47.502;18.940;2023-03-21T00:52:28;98106.13;;;8.98;76.63
65756;BME280;52489;47.502;18.940;2023-03-21T00:53:42;98103.81;;;8.96;77.07
65756;BME280;52489;47.502;18.940;2023-03-21T00:54:45;98099.69;;;8.90;77.12
65756;BME280;52489;47.502;18.940;2023-03-21T00:55:48;98094.56;;;8.85;76.94
65756;BME280;52489;47.502;18.940;2023-03-21T00:56:51;98093.22;;;8.87;77.12
65756;BME280;52489;47.502;18.940;2023-03-21T00:57:54;98099.00;;;8.84;77.33
65756;BME280;52489;47.502;18.940;2023-03-21T00:59:04;98094.81;;;8.83;77.27
65756;BME280;52489;47.502;18.940;2023-03-21T01:00:10;98108.25;;;8.77;78.54
65756;BME280;52489;47.502;18.940;2023-03-21T01:01:14;98092.50;;;8.82;77.32
65756;BME280;52489;47.502;18.940;2023-03-21T01:02:17;98099.53;;;8.81;76.68
65756;BME280;52489;47.502;18.940;2023-03-21T01:03:24;98097.16;;;8.85;76.78
65756;BME280;52489;47.502;18.940;2023-03-21T01:04:28;98103.22;;;8.80;77.08
65756;BME280;52489;47.502;18.940;2023-03-21T01:05:33;98091.94;;;8.85;76.46
65756;BME280;52489;47.502;18.940;2023-03-21T01:06:55;98087.00;;;8.83;76.72
65756;BME280;52489;47.502;18.940;2023-03-21T01:07:58;98094.03;;;8.64;77.30
65756;BME280;52489;47.502;18.940;2023-03-21T01:09:01;98094.59;;;8.61;78.12
65756;BME280;52489;47.502;18.940;2023-03-21T01:10:05;98093.50;;;8.67;77.61
65756;BME280;52489;47.502;18.940;2023-03-21T01:11:12;98091.59;;;8.73;77.24
65756;BME280;52489;47.502;18.940;2023-03-21T01:12:15;98088.09;;;8.58;77.18
65756;BME280;52489;47.502;18.940;2023-03-21T01:13:21;98093.25;;;8.63;77.00
65756;BME280;52489;47.502;18.940;2023-03-21T01:14:24;98092.09;;;8.51;77.93
65756;BME280;52489;47.502;18.940;2023-03-21T01:15:27;98089.22;;;8.52;77.82
65756;BME280;52489;47.502;18.940;2023-03-21T01:16:30;98086.94;;;8.46;78.00
65756;BME280;52489;47.502;18.940;2023-03-21T01:17:33;98090.72;;;8.34;77.55
65756;BME280;52489;47.502;18.940;2023-03-21T01:18:38;98092.91;;;8.22;78.24
65756;BME280;52489;47.502;18.940;2023-03-21T01:19:42;98095.41;;;8.08;78.96
65756;BME280;52489;47.502;18.940;2023-03-21T01:20:56;98094.47;;;8.23;78.32
65756;BME280;52489;47.502;18.940;2023-03-21T01:21:59;98092.97;;;8.17;78.43
65756;BME280;52489;47.502;18.940;2023-03-21T01:23:02;98088.31;;;8.14;77.84
65756;BME280;52489;47.502;18.940;2023-03-21T01:24:05;98088.72;;;8.26;77.44
65756;BME280;52489;47.502;18.940;2023-03-21T01:25:09;98074.94;;;8.20;78.03
65756;BME280;52489;47.502;18.940;2023-03-21T01:26:23;98077.97;;;8.04;80.14
65756;BME280;52489;47.502;18.940;2023-03-21T01:27:27;98082.38;;;8.08;79.18
65756;BME280;52489;47.502;18.940;2023-03-21T01:28:30;98073.22;;;8.11;79.37
65756;BME280;52489;47.502;18.940;2023-03-21T01:29:33;98079.63;;;7.94;79.63
65756;BME280;52489;47.502;18.940;2023-03-21T01:30:36;98079.69;;;7.89;79.53
65756;BME280;52489;47.502;18.940;2023-03-21T01:31:43;98084.34;;;7.92;79.18
65756;BME280;52489;47.502;18.940;2023-03-21T01:32:46;98085.69;;;7.90;80.14
65756;BME280;52489;47.502;18.940;2023-03-21T01:33:50;98088.59;;;7.83;80.11
65756;BME280;52489;47.502;18.940;2023-03-21T01:34:52;98090.59;;;7.96;79.17
65756;BME280;52489;47.502;18.940;2023-03-21T01:35:56;98096.72;;;7.82;80.45
65756;BME280;52489;47.502;18.940;2023-03-21T01:37:14;98089.94;;;7.81;79.85
65756;BME280;52489;47.502;18.940;2023-03-21T01:38:20;98089.03;;;7.66;80.71
65756;BME280;52489;47.502;18.940;2023-03-21T01:39:23;98094.34;;;7.51;81.46
65756;BME280;52489;47.502;18.940;2023-03-21T01:40:26;98090.06;;;7.65;80.94
65756;BME280;52489;47.502;18.940;2023-03-21T01:41:33;98084.59;;;7.67;80.90
65756;BME280;52489;47.502;18.940;2023-03-21T01:42:46;98085.41;;;7.62;81.29
65756;BME280;52489;47.502;18.940;2023-03-21T01:43:48;98082.84;;;7.57;81.36
65756;BME280;52489;47.502;18.940;2023-03-21T01:45:00;98086.50;;;7.56;81.43
65756;BME280;52489;47.502;18.940;2023-03-21T01:46:42;98093.88;;;7.49;81.79
65756;BME280;52489;47.502;18.940;2023-03-21T01:48:11;98083.16;;;7.50;82.27
65756;BME280;52489;47.502;18.940;2023-03-21T01:49:22;98089.19;;;7.46;83.05
65756;BME280;52489;47.502;18.940;2023-03-21T01:50:27;98090.97;;;7.50;82.84
65756;BME280;52489;47.502;18.940;2023-03-21T01:51:35;98096.37;;;7.59;82.26
65756;BME280;52489;47.502;18.940;2023-03-21T01:52:40;98085.56;;;7.76;81.80
65756;BME280;52489;47.502;18.940;2023-03-21T01:53:44;98085.56;;;7.76;82.21
65756;BME280;52489;47.502;18.940;2023-03-21T01:54:49;98080.84;;;7.78;81.86
65756;BME280;52489;47.502;18.940;2023-03-21T01:55:53;98075.13;;;7.76;81.89
65756;BME280;52489;47.502;18.940;2023-03-21T01:56:58;98077.25;;;7.69;82.48
65756;BME280;52489;47.502;18.940;2023-03-21T01:58:04;98074.97;;;7.62;83.08
65756;BME280;52489;47.502;18.940;2023-03-21T01:59:18;98078.91;;;7.60;83.13
65756;BME280;52489;47.502;18.940;2023-03-21T02:00:24;98070.06;;;7.61;83.44
65756;BME280;52489;47.502;18.940;2023-03-21T02:01:29;98076.91;;;7.51;83.83
65756;BME280;52489;47.502;18.940;2023-03-21T02:02:33;98075.06;;;7.52;83.38
65756;BME280;52489;47.502;18.940;2023-03-21T02:04:11;98075.91;;;7.42;83.91
65756;BME280;52489;47.502;18.940;2023-03-21T02:05:27;98083.44;;;7.49;83.83
65756;BME280;52489;47.502;18.940;2023-03-21T02:06:55;98071.16;;;7.55;83.47
65756;BME280;52489;47.502;18.940;2023-03-21T02:08:00;98075.56;;;7.54;83.92
65756;BME280;52489;47.502;18.940;2023-03-21T02:09:08;98067.47;;;7.56;83.89
65756;BME280;52489;47.502;18.940;2023-03-21T02:10:13;98069.53;;;7.59;84.11
65756;BME280;52489;47.502;18.940;2023-03-21T02:11:17;98076.56;;;7.63;85.31
65756;BME280;52489;47.502;18.940;2023-03-21T02:12:20;98077.53;;;7.67;84.97
65756;BME280;52489;47.502;18.940;2023-03-21T02:13:24;98072.22;;;7.78;84.56
65756;BME280;52489;47.502;18.940;2023-03-21T02:14:30;98079.81;;;7.74;84.54
65756;BME280;52489;47.502;18.940;2023-03-21T02:15:34;98070.78;;;7.66;84.75
65756;BME280;52489;47.502;18.940;2023-03-21T02:17:00;98070.72;;;7.71;84.81
65756;BME280;52489;47.502;18.940;2023-03-21T02:18:16;98068.06;;;7.77;84.28
65756;BME280;52489;47.502;18.940;2023-03-21T02:19:52;98074.03;;;7.82;83.90
65756;BME280;52489;47.502;18.940;2023-03-21T02:21:39;98068.50;;;7.84;84.40
65756;BME280;52489;47.502;18.940;2023-03-21T02:24:47;98065.44;;;7.82;84.38
65756;BME280;52489;47.502;18.940;2023-03-21T02:32:09;98076.75;;;7.96;84.41
65756;BME280;52489;47.502;18.940;2023-03-21T02:35:52;98074.72;;;7.93;84.41
65756;BME280;52489;47.502;18.940;2023-03-21T02:40:11;98076.56;;;8.16;83.51
65756;BME280;52489;47.502;18.940;2023-03-21T02:41:49;98075.53;;;8.12;83.56
65756;BME280;52489;47.502;18.940;2023-03-21T02:45:35;98067.88;;;7.97;84.82
65756;BME280;52489;47.502;18.940;2023-03-21T02:46:54;98076.22;;;7.99;84.25
65756;BME280;52489;47.502;18.940;2023-03-21T02:48:11;98074.88;;;8.02;83.87
65756;BME280;52489;47.502;18.940;2023-03-21T02:50:45;98076.66;;;8.06;83.79
65756;BME280;52489;47.502;18.940;2023-03-21T02:51:49;98072.87;;;8.17;83.12
65756;BME280;52489;47.502;18.940;2023-03-21T02:52:53;98077.59;;;8.15;83.16
65756;BME280;52489;47.502;18.940;2023-03-21T02:54:01;98075.53;;;8.12;83.27
65756;BME280;52489;47.502;18.940;2023-03-21T02:55:27;98074.03;;;8.06;83.56
65756;BME280;52489;47.502;18.940;2023-03-21T02:56:34;98077.94;;;8.09;83.56
65756;BME280;52489;47.502;18.940;2023-03-21T02:57:40;98078.44;;;8.11;83.50
65756;BME280;52489;47.502;18.940;2023-03-21T02:58:45;98082.34;;;8.13;83.58
65756;BME280;52489;47.502;18.940;2023-03-21T02:59:50;98076.56;;;8.16;83.34
65756;BME280;52489;47.502;18.940;2023-03-21T03:01:01;98076.78;;;8.20;83.23
65756;BME280;52489;47.502;18.940;2023-03-21T03:02:05;98070.94;;;8.28;82.60
65756;BME280;52489;47.502;18.940;2023-03-21T03:03:08;98082.63;;;8.31;82.61
65756;BME280;52489;47.502;18.940;2023-03-21T03:04:22;98075.44;;;8.23;83.07
65756;BME280;52489;47.502;18.940;2023-03-21T03:05:28;98079.84;;;8.22;83.02
65756;BME280;52489;47.502;18.940;2023-03-21T03:11:27;98078.69;;;8.33;82.15
65756;BME280;52489;47.502;18.940;2023-03-21T03:12:44;98079.97;;;8.36;82.08
65756;BME280;52489;47.502;18.940;2023-03-21T03:14:19;98076.09;;;8.33;81.82
65756;BME280;52489;47.502;18.940;2023-03-21T03:16:15;98073.47;;;8.33;81.72
65756;BME280;52489;47.502;18.940;2023-03-21T03:17:27;98071.38;;;8.35;81.72
65756;BME280;52489;47.502;18.940;2023-03-21T03:18:45;98071.09;;;8.37;81.55
65756;BME280;52489;47.502;18.940;2023-03-21T03:21:37;98070.38;;;8.31;81.81
65756;BME280;52489;47.502;18.940;2023-03-21T03:22:51;98069.59;;;8.31;81.52
65756;BME280;52489;47.502;18.940;2023-03-21T03:25:17;98068.25;;;8.33;81.46
65756;BME280;52489;47.502;18.940;2023-03-21T03:27:14;98073.25;;;8.30;81.44
65756;BME280;52489;47.502;18.940;2023-03-21T03:28:24;98071.72;;;8.29;81.30
65756;BME280;52489;47.502;18.940;2023-03-21T03:29:29;98077.75;;;8.24;81.40
65756;BME280;52489;47.502;18.940;2023-03-21T03:30:35;98078.38;;;8.16;81.74
65756;BME280;52489;47.502;18.940;2023-03-21T03:31:55;98070.50;;;8.21;81.75
65756;BME280;52489;47.502;18.940;2023-03-21T03:33:01;98073.81;;;8.27;81.62
65756;BME280;52489;47.502;18.940;2023-03-21T03:34:09;98073.00;;;8.31;81.50
65756;BME280;52489;47.502;18.940;2023-03-21T03:35:16;98069.53;;;8.36;81.24
65756;BME280;52489;47.502;18.940;2023-03-21T03:36:26;98065.66;;;8.33;81.30
65756;BME280;52489;47.502;18.940;2023-03-21T03:37:34;98071.28;;;8.46;81.16
65756;BME280;52489;47.502;18.940;2023-03-21T03:38:40;98067.41;;;8.43;81.24
65756;BME280;52489;47.502;18.940;2023-03-21T03:40:02;98062.72;;;8.40;81.35
65756;BME280;52489;47.502;18.940;2023-03-21T03:41:16;98061.84;;;8.50;81.16
65756;BME280;52489;47.502;18.940;2023-03-21T03:42:29;98073.72;;;8.61;80.18
65756;BME280;52489;47.502;18.940;2023-03-21T03:44:11;98071.72;;;8.53;80.46
65756;BME280;52489;47.502;18.940;2023-03-21T03:45:06;98063.03;;;8.57;80.56
65756;BME280;52489;47.502;18.940;2023-03-21T03:46:17;98067.63;;;8.65;80.28
65756;BME280;52489;47.502;18.940;2023-03-21T03:47:28;98070.31;;;8.60;80.41
65756;BME280;52489;47.502;18.940;2023-03-21T03:48:55;98073.78;;;8.56;80.49
65756;BME280;52489;47.502;18.940;2023-03-21T03:50:27;98071.16;;;8.56;80.33
65756;BME280;52489;47.502;18.940;2023-03-21T03:51:51;98072.34;;;8.63;80.28
65756;BME280;52489;47.502;18.940;2023-03-21T03:54:23;98074.41;;;8.66;80.11
65756;BME280;52489;47.502;18.940;2023-03-21T03:55:30;98078.53;;;8.73;79.86
65756;BME280;52489;47.502;18.940;2023-03-21T03:56:36;98073.37;;;8.68;79.87
65756;BME280;52489;47.502;18.940;2023-03-21T03:57:40;98073.22;;;8.78;79.77
65756;BME280;52489;47.502;18.940;2023-03-21T03:58:43;98079.87;;;8.70;79.90
65756;BME280;52489;47.502;18.940;2023-03-21T03:59:47;98076.47;;;8.70;80.05
65756;BME280;52489;47.502;18.940;2023-03-21T04:00:52;98076.75;;;8.68;80.15
65756;BME280;52489;47.502;18.940;2023-03-21T04:01:56;98069.69;;;8.69;80.04
65756;BME280;52489;47.502;18.940;2023-03-21T04:02:59;98073.37;;;8.68;80.11
65756;BME280;52489;47.502;18.940;2023-03-21T04:04:02;98077.03;;;8.85;79.49
65756;BME280;52489;47.502;18.940;2023-03-21T04:05:15;98074.94;;;8.87;79.32
65756;BME280;52489;47.502;18.940;2023-03-21T04:06:23;98071.94;;;8.75;79.69
65756;BME280;52489;47.502;18.940;2023-03-21T04:07:25;98081.63;;;8.75;79.84
65756;BME280;52489;47.502;18.940;2023-03-21T04:08:29;98077.47;;;8.74;79.87
65756;BME280;52489;47.502;18.940;2023-03-21T04:09:32;98083.59;;;8.83;79.55
65756;BME280;52489;47.502;18.940;2023-03-21T04:10:45;98080.72;;;8.84;79.67
65756;BME280;52489;47.502;18.940;2023-03-21T04:11:48;98079.50;;;8.77;79.88
65756;BME280;52489;47.502;18.940;2023-03-21T04:12:51;98076.03;;;8.81;79.67
65756;BME280;52489;47.502;18.940;2023-03-21T04:13:54;98087.75;;;8.84;79.58
65756;BME280;52489;47.502;18.940;2023-03-21T04:14:57;98076.34;;;8.80;79.58
65756;BME280;52489;47.502;18.940;2023-03-21T04:16:11;98077.09;;;8.80;79.55
65756;BME280;52489;47.502;18.940;2023-03-21T04:17:16;98082.63;;;8.79;79.62
65756;BME280;52489;47.502;18.940;2023-03-21T04:18:19;98070.91;;;8.76;79.79
65756;BME280;52489;47.502;18.940;2023-03-21T04:19:24;98077.56;;;8.87;79.50
65756;BME280;52489;47.502;18.940;2023-03-21T04:20:28;98082.84;;;8.82;79.50
65756;BME280;52489;47.502;18.940;2023-03-21T04:21:38;98081.81;;;8.78;79.68
65756;BME280;52489;47.502;18.940;2023-03-21T04:22:42;98078.88;;;8.85;79.29
65756;BME280;52489;47.502;18.940;2023-03-21T04:23:44;98085.50;;;8.77;79.65
65756;BME280;52489;47.502;18.940;2023-03-21T04:24:47;98080.84;;;8.74;79.72
65756;BME280;52489;47.502;18.940;2023-03-21T04:25:51;98083.75;;;8.73;79.75
65756;BME280;52489;47.502;18.940;2023-03-21T04:26:59;98085.81;;;8.76;79.60
65756;BME280;52489;47.502;18.940;2023-03-21T04:28:02;98077.09;;;8.61;80.04
65756;BME280;52489;47.502;18.940;2023-03-21T04:29:05;98084.94;;;8.61;80.03
65756;BME280;52489;47.502;18.940;2023-03-21T04:30:09;98076.09;;;8.57;79.99
65756;BME280;52489;47.502;18.940;2023-03-21T04:31:14;98079.78;;;8.56;80.05
65756;BME280;52489;47.502;18.940;2023-03-21T04:32:27;98078.44;;;8.59;79.89
65756;BME280;52489;47.502;18.940;2023-03-21T04:33:30;98078.50;;;8.54;80.10
65756;BME280;52489;47.502;18.940;2023-03-21T04:34:33;98079.81;;;8.51;80.09
65756;BME280;52489;47.502;18.940;2023-03-21T04:35:42;98077.72;;;8.53;80.19
65756;BME280;52489;47.502;18.940;2023-03-21T04:36:47;98075.06;;;8.58;79.83
65756;BME280;52489;47.502;18.940;2023-03-21T04:37:51;98071.94;;;8.56;80.12
65756;BME280;52489;47.502;18.940;2023-03-21T04:38:54;98069.88;;;8.53;80.19
65756;BME280;52489;47.502;18.940;2023-03-21T04:40:03;98073.81;;;8.51;80.24
65756;BME280;52489;47.502;18.940;2023-03-21T04:41:08;98070.72;;;8.49;80.40
65756;BME280;52489;47.502;18.940;2023-03-21T04:42:12;98071.78;;;8.48;80.39
65756;BME280;52489;47.502;18.940;2023-03-21T04:43:15;98073.00;;;8.55;80.12
65756;BME280;52489;47.502;18.940;2023-03-21T04:44:18;98074.13;;;8.49;79.97
65756;BME280;52489;47.502;18.940;2023-03-21T04:45:22;98074.94;;;8.45;80.13
65756;BME280;52489;47.502;18.940;2023-03-21T04:46:25;98072.91;;;8.41;80.26
65756;BME280;52489;47.502;18.940;2023-03-21T04:47:29;98069.28;;;8.37;80.13
65756;BME280;52489;47.502;18.940;2023-03-21T04:48:32;98072.66;;;8.38;80.39
65756;BME280;52489;47.502;18.940;2023-03-21T04:49:35;98081.53;;;8.37;80.15
65756;BME280;52489;47.502;18.940;2023-03-21T04:50:38;98086.25;;;8.35;80.26
65756;BME280;52489;47.502;18.940;2023-03-21T04:51:42;98082.94;;;8.29;80.09
65756;BME280;52489;47.502;18.940;2023-03-21T04:52:46;98083.75;;;8.25;80.42
65756;BME280;52489;47.502;18.940;2023-03-21T04:53:50;98080.16;;;8.20;80.63
65756;BME280;52489;47.502;18.940;2023-03-21T04:54:53;98083.69;;;8.30;80.72
65756;BME280;52489;47.502;18.940;2023-03-21T04:55:57;98077.00;;;8.24;80.89
65756;BME280;52489;47.502;18.940;2023-03-21T04:56:59;98071.56;;;8.20;81.54
65756;BME280;52489;47.502;18.940;2023-03-21T04:58:04;98083.31;;;8.17;81.21
65756;BME280;52489;47.502;18.940;2023-03-21T04:59:09;98083.59;;;8.16;81.43
65756;BME280;52489;47.502;18.940;2023-03-21T05:00:13;98075.19;;;8.19;81.14
65756;BME280;52489;47.502;18.940;2023-03-21T05:01:16;98071.38;;;8.11;81.04
65756;BME280;52489;47.502;18.940;2023-03-21T05:02:22;98069.75;;;8.15;81.36
65756;BME280;52489;47.502;18.940;2023-03-21T05:03:25;98073.22;;;8.11;81.19
65756;BME280;52489;47.502;18.940;2023-03-21T05:04:30;98067.19;;;8.10;81.54
65756;BME280;52489;47.502;18.940;2023-03-21T05:05:37;98070.09;;;8.09;81.60
65756;BME280;52489;47.502;18.940;2023-03-21T05:06:41;98067.75;;;8.07;81.30
65756;BME280;52489;47.502;18.940;2023-03-21T05:07:44;98071.91;;;8.13;81.20
65756;BME280;52489;47.502;18.940;2023-03-21T05:08:47;98070.31;;;8.12;81.15
65756;BME280;52489;47.502;18.940;2023-03-21T05:09:51;98071.91;;;8.13;81.36
65756;BME280;52489;47.502;18.940;2023-03-21T05:10:54;98067.72;;;8.12;81.47
65756;BME280;52489;47.502;18.940;2023-03-21T05:11:56;98070.09;;;8.09;81.54
65756;BME280;52489;47.502;18.940;2023-03-21T05:12:59;98074.00;;;8.11;81.17
65756;BME280;52489;47.502;18.940;2023-03-21T05:14:04;98068.25;;;8.09;81.14
65756;BME280;52489;47.502;18.940;2023-03-21T05:15:08;98077.38;;;8.12;81.22
65756;BME280;52489;47.502;18.940;2023-03-21T05:16:11;98069.50;;;8.17;81.42
65756;BME280;52489;47.502;18.940;2023-03-21T05:17:14;98079.97;;;8.12;82.16
65756;BME280;52489;47.502;18.940;2023-03-21T05:18:24;98079.66;;;8.18;81.74
65756;BME280;52489;47.502;18.940;2023-03-21T05:19:30;98075.19;;;8.19;81.59
65756;BME280;52489;47.502;18.940;2023-03-21T05:20:38;98075.53;;;8.36;80.72
65756;BME280;52489;47.502;18.940;2023-03-21T05:21:44;98081.72;;;8.46;80.20
65756;BME280;52489;47.502;18.940;2023-03-21T05:22:47;98078.69;;;8.38;80.44
65756;BME280;52489;47.502;18.940;2023-03-21T05:23:53;98088.09;;;8.34;80.90
65756;BME280;52489;47.502;18.940;2023-03-21T05:24:56;98082.59;;;8.36;80.94
65756;BME280;52489;47.502;18.940;2023-03-21T05:25:59;98084.84;;;8.48;80.52
65756;BME280;52489;47.502;18.940;2023-03-21T05:27:02;98090.97;;;8.57;80.03
65756;BME280;52489;47.502;18.940;2023-03-21T05:28:06;98094.81;;;8.64;79.88
65756;BME280;52489;47.502;18.940;2023-03-21T05:29:09;98087.75;;;8.65;79.73
65756;BME280;52489;47.502;18.940;2023-03-21T05:30:16;98092.31;;;8.54;80.36
65756;BME280;52489;47.502;18.940;2023-03-21T05:31:19;98093.66;;;8.52;80.59
65756;BME280;52489;47.502;18.940;2023-03-21T05:32:22;98093.50;;;8.67;79.96
65756;BME280;52489;47.502;18.940;2023-03-21T05:33:25;98090.63;;;8.63;80.27
65756;BME280;52489;47.502;18.940;2023-03-21T05:34:28;98102.59;;;8.70;80.09
65756;BME280;52489;47.502;18.940;2023-03-21T05:35:31;98098.41;;;8.69;80.11
65756;BME280;52489;47.502;18.940;2023-03-21T05:36:34;98097.50;;;8.78;79.97
65756;BME280;52489;47.502;18.940;2023-03-21T05:37:38;98097.44;;;8.83;79.81
65756;BME280;52489;47.502;18.940;2023-03-21T05:38:41;98099.44;;;8.92;79.42
65756;BME280;52489;47.502;18.940;2023-03-21T05:39:48;98098.09;;;8.94;79.42
65756;BME280;52489;47.502;18.940;2023-03-21T05:40:53;98097.88;;;8.91;79.34
65756;BME280;52489;47.502;18.940;2023-03-21T05:41:55;98102.31;;;8.90;79.57
65756;BME280;52489;47.502;18.940;2023-03-21T05:42:58;98099.38;;;8.97;79.36
65756;BME280;52489;47.502;18.940;2023-03-21T05:44:01;98099.62;;;8.95;79.79
65756;BME280;52489;47.502;18.940;2023-03-21T05:45:04;98103.59;;;8.93;80.15
65756;BME280;52489;47.502;18.940;2023-03-21T05:46:08;98109.97;;;9.05;79.58
65756;BME280;52489;47.502;18.940;2023-03-21T05:47:13;98107.56;;;9.09;79.12
65756;BME280;52489;47.502;18.940;2023-03-21T05:48:17;98109.31;;;9.14;78.99
65756;BME280;52489;47.502;18.940;2023-03-21T05:49:20;98110.16;;;9.09;79.48
65756;BME280;52489;47.502;18.940;2023-03-21T05:50:24;98105.94;;;8.94;80.64
65756;BME280;52489;47.502;18.940;2023-03-21T05:51:27;98117.59;;;9.21;78.98
65756;BME280;52489;47.502;18.940;2023-03-21T05:52:30;98109.53;;;9.17;78.75
65756;BME280;52489;47.502;18.940;2023-03-21T05:53:33;98112.63;;;9.19;78.68
65756;BME280;52489;47.502;18.940;2023-03-21T05:54:36;98110.31;;;9.18;79.27
65756;BME280;52489;47.502;18.940;2023-03-21T05:55:39;98107.12;;;9.21;79.46
65756;BME280;52489;47.502;18.940;2023-03-21T05:56:42;98113.69;;;9.18;78.79
65756;BME280;52489;47.502;18.940;2023-03-21T05:57:45;98113.13;;;9.21;78.39
65756;BME280;52489;47.502;18.940;2023-03-21T05:58:47;98122.44;;;9.27;78.29
65756;BME280;52489;47.502;18.940;2023-03-21T05:59:51;98112.19;;;9.31;78.49
65756;BME280;52489;47.502;18.940;2023-03-21T06:00:54;98111.75;;;9.43;78.36
65756;BME280;52489;47.502;18.940;2023-03-21T06:01:57;98113.66;;;9.56;77.68
65756;BME280;52489;47.502;18.940;2023-03-21T06:03:00;98117.03;;;9.56;77.52
65756;BME280;52489;47.502;18.940;2023-03-21T06:04:05;98117.81;;;9.57;77.21
65756;BME280;52489;47.502;18.940;2023-03-21T06:05:08;98114.62;;;9.60;77.33
65756;BME280;52489;47.502;18.940;2023-03-21T06:06:11;98110.59;;;9.68;77.28
65756;BME280;52489;47.502;18.940;2023-03-21T06:07:13;98114.47;;;9.70;77.32
65756;BME280;52489;47.502;18.940;2023-03-21T06:08:17;98115.16;;;9.76;76.99
65756;BME280;52489;47.502;18.940;2023-03-21T06:09:20;98118.00;;;9.79;77.38
65756;BME280;52489;47.502;18.940;2023-03-21T06:10:24;98114.81;;;9.83;77.40
65756;BME280;52489;47.502;18.940;2023-03-21T06:11:32;98120.22;;;9.86;77.47
65756;BME280;52489;47.502;18.940;2023-03-21T06:12:36;98115.88;;;9.95;77.16
65756;BME280;52489;47.502;18.940;2023-03-21T06:13:39;98116.75;;;10.05;76.68
65756;BME280;52489;47.502;18.940;2023-03-21T06:14:42;98109.22;;;10.03;77.04
65756;BME280;52489;47.502;18.940;2023-03-21T06:15:45;98109.03;;;10.13;76.89
65756;BME280;52489;47.502;18.940;2023-03-21T06:16:48;98112.31;;;10.19;76.36
65756;BME280;52489;47.502;18.940;2023-03-21T06:17:52;98114.25;;;10.13;76.06
65756;BME280;52489;47.502;18.940;2023-03-21T06:18:55;98112.53;;;10.09;76.27
65756;BME280;52489;47.502;18.940;2023-03-21T06:19:58;98108.34;;;10.08;76.25
65756;BME280;52489;47.502;18.940;2023-03-21T06:21:02;98111.13;;;10.11;76.60
65756;BME280;52489;47.502;18.940;2023-03-21T06:22:06;98113.22;;;10.28;76.03
65756;BME280;52489;47.502;18.940;2023-03-21T06:23:09;98115.09;;;10.41;75.60